Time;durP1;ratioP1;P1;durP2;ratioP2;P2;SDS_P1;SDS_P2;PMS_P1;PMS_P2;Temp;Humidity;BMP_temperature;BMP_pressure;BME280_temperature;BME280_humidity;BME280_pressure;Samples;Min_cycle;Max_cycle;Signal;HPM_P1;HPM_P2
2022/02/21 00:01:15;;;;;;;1.93;1.20;;;8.50;99.90;;;;;;5054748;28;20462;-71
2022/02/21 00:03:42;;;;;;;2.17;1.30;;;8.50;99.90;;;;;;5054346;28;20927;-71
2022/02/21 00:06:09;;;;;;;3.07;1.33;;;8.50;99.90;;;;;;5054473;28;20463;-71
2022/02/21 00:08:36;;;;;;;1.40;1.20;;;8.50;99.90;;;;;;5054961;28;20465;-71
2022/02/21 00:11:04;;;;;;;1.40;0.97;;;8.50;99.90;;;;;;5054576;28;20475;-71
2022/02/21 00:13:30;;;;;;;3.93;1.10;;;8.50;99.90;;;;;;5054332;28;20458;-71
2022/02/21 00:15:57;;;;;;;1.53;1.10;;;8.60;99.90;;;;;;5054337;28;20455;-71
2022/02/21 00:18:24;;;;;;;1.40;0.90;;;8.60;99.90;;;;;;5054471;28;20470;-71
2022/02/21 00:20:52;;;;;;;1.77;1.20;;;8.60;99.90;;;;;;5054827;28;20452;-71
2022/02/21 00:23:21;;;;;;;1.20;0.90;;;8.70;99.90;;;;;;5054084;28;20459;-71
2022/02/21 00:25:48;;;;;;;1.53;1.00;;;8.70;99.90;;;;;;5054282;28;20459;-71
2022/02/21 00:28:16;;;;;;;1.37;1.20;;;8.70;99.90;;;;;;5054183;28;20466;-71
2022/02/21 00:30:42;;;;;;;1.50;1.20;;;8.80;99.90;;;;;;5054714;28;20491;-71
2022/02/21 00:33:09;;;;;;;1.40;1.10;;;8.80;99.90;;;;;;5058863;28;20454;-71
2022/02/21 00:35:36;;;;;;;2.60;1.10;;;8.80;99.90;;;;;;5059212;28;20470;-71
2022/02/21 00:38:03;;;;;;;1.40;1.10;;;8.80;99.90;;;;;;5058846;28;20466;-71
2022/02/21 00:40:31;;;;;;;1.63;0.90;;;8.80;99.90;;;;;;5058115;28;20463;-71
2022/02/21 00:42:59;;;;;;;2.37;1.00;;;8.80;99.90;;;;;;5058603;28;20466;-70
2022/02/21 00:45:27;;;;;;;2.63;1.10;;;8.90;99.90;;;;;;5058163;28;20463;-71
2022/02/21 00:47:54;;;;;;;2.23;1.03;;;8.90;99.90;;;;;;5058304;28;20907;-72
2022/02/21 00:50:21;;;;;;;2.40;0.93;;;9.00;99.90;;;;;;5058015;28;20785;-72
2022/02/21 00:52:47;;;;;;;4.67;1.30;;;9.00;99.90;;;;;;5058121;28;20455;-71
2022/02/21 00:55:17;;;;;;;1.30;0.90;;;9.10;99.90;;;;;;5057898;28;20512;-71
2022/02/21 00:57:47;;;;;;;1.50;0.90;;;9.10;99.90;;;;;;5057921;28;20450;-71
2022/02/21 01:00:15;;;;;;;1.73;1.07;;;9.20;99.90;;;;;;5057421;28;20923;-71
2022/02/21 01:02:43;;;;;;;1.30;0.90;;;9.20;99.90;;;;;;5058097;28;20508;-71
2022/02/21 01:05:09;;;;;;;2.70;1.00;;;9.30;99.90;;;;;;5057575;28;20459;-71
2022/02/21 01:07:36;;;;;;;2.07;1.20;;;9.30;99.90;;;;;;5057773;28;20466;-70
2022/02/21 01:10:04;;;;;;;1.47;0.87;;;9.30;99.90;;;;;;5057828;28;20950;-70
2022/02/21 01:12:31;;;;;;;1.57;0.87;;;9.50;99.90;;;;;;5057527;28;20493;-70
2022/02/21 01:14:58;;;;;;;5.43;1.00;;;9.50;99.90;;;;;;5057912;28;20455;-70
2022/02/21 01:17:28;;;;;;;5.70;1.00;;;9.50;99.90;;;;;;5057124;28;20950;-70
2022/02/21 01:19:56;;;;;;;1.40;0.83;;;9.60;99.90;;;;;;5057201;28;20476;-70
2022/02/21 01:22:22;;;;;;;1.33;0.80;;;9.70;99.90;;;;;;5057434;28;20455;-70
2022/02/21 01:24:55;;;;;;;1.20;0.90;;;9.70;99.90;;;;;;5057455;28;20459;-70
2022/02/21 01:27:22;;;;;;;1.57;1.00;;;9.80;99.90;;;;;;5056928;28;20486;-70
2022/02/21 01:29:48;;;;;;;1.43;0.80;;;9.90;99.90;;;;;;5057238;28;20937;-70
2022/02/21 01:32:15;;;;;;;1.60;0.93;;;10.00;99.90;;;;;;5056919;28;20955;-71
2022/02/21 01:34:42;;;;;;;1.60;1.33;;;10.10;99.90;;;;;;5057119;28;20792;-70
2022/02/21 01:37:10;;;;;;;1.30;1.00;;;10.10;99.90;;;;;;5057330;28;20474;-70
2022/02/21 01:39:37;;;;;;;1.70;0.97;;;10.20;99.90;;;;;;5057189;28;20790;-70
2022/02/21 01:42:08;;;;;;;1.17;0.80;;;10.20;99.90;;;;;;5057070;28;20814;-71
2022/02/21 01:44:37;;;;;;;1.33;0.70;;;10.40;99.90;;;;;;5056155;28;20447;-71
2022/02/21 01:47:05;;;;;;;1.20;0.90;;;10.40;99.90;;;;;;5057149;28;20493;-71
2022/02/21 01:49:35;;;;;;;1.67;0.90;;;10.40;99.90;;;;;;5056822;28;20459;-71
2022/02/21 01:52:03;;;;;;;2.30;0.70;;;10.50;99.90;;;;;;5056900;28;20482;-71
2022/02/21 01:54:35;;;;;;;3.00;1.03;;;10.60;99.90;;;;;;5057466;28;20455;-71
2022/02/21 01:57:03;;;;;;;2.80;0.73;;;10.60;99.90;;;;;;5061020;28;20439;-71
2022/02/21 01:59:30;;;;;;;1.07;0.70;;;10.60;99.90;;;;;;5061226;28;20497;-71
2022/02/21 02:01:56;;;;;;;1.30;0.70;;;10.60;99.90;;;;;;5057683;28;20918;-69
2022/02/21 02:04:25;;;;;;;1.20;0.80;;;10.70;99.90;;;;;;5057181;28;20827;-70
2022/02/21 02:06:52;;;;;;;1.33;0.70;;;10.70;99.90;;;;;;5056665;28;20459;-70
2022/02/21 02:09:19;;;;;;;3.97;0.80;;;10.80;99.90;;;;;;5056469;28;20466;-71
2022/02/21 02:11:47;;;;;;;1.87;0.70;;;10.80;99.90;;;;;;5056431;28;20506;-71
2022/02/21 02:14:27;;;;;;;1.20;0.87;;;10.90;99.90;;;;;;5056566;28;20463;-71
2022/02/21 02:16:54;;;;;;;1.27;0.70;;;10.90;99.90;;;;;;5056172;28;20447;-70
2022/02/21 02:19:21;;;;;;;1.10;0.60;;;10.90;99.90;;;;;;5056357;28;20517;-71
2022/02/21 02:21:52;;;;;;;2.70;0.63;;;11.00;99.90;;;;;;5056789;28;20451;-71
2022/02/21 02:24:21;;;;;;;1.00;0.70;;;11.00;99.90;;;;;;5055954;28;20444;-71
2022/02/21 02:26:52;;;;;;;1.20;0.70;;;11.00;99.90;;;;;;5055996;28;20481;-71
2022/02/21 02:29:19;;;;;;;1.70;0.63;;;11.00;99.90;;;;;;5056180;28;20859;-70
2022/02/21 02:31:46;;;;;;;3.00;0.80;;;10.90;99.90;;;;;;5055618;28;20494;-71
2022/02/21 02:34:12;;;;;;;1.67;0.70;;;10.90;99.90;;;;;;5056419;28;20822;-69
2022/02/21 02:36:39;;;;;;;1.47;0.83;;;10.80;99.90;;;;;;5055936;28;20466;-70
2022/02/21 02:39:10;;;;;;;1.10;0.60;;;10.70;99.90;;;;;;5055989;28;20470;-71
2022/02/21 02:41:39;;;;;;;1.40;0.70;;;10.50;99.90;;;;;;5055882;28;20443;-70
2022/02/21 02:44:05;;;;;;;1.90;0.87;;;10.20;99.90;;;;;;5055868;28;20570;-75
2022/02/21 02:46:32;;;;;;;2.13;0.80;;;9.80;99.90;;;;;;5055903;28;20477;-72
2022/02/21 02:48:59;;;;;;;1.53;0.70;;;9.30;99.90;;;;;;5056291;28;20459;-72
2022/02/21 02:51:26;;;;;;;2.00;0.80;;;9.00;99.90;;;;;;5055917;28;20479;-72
2022/02/21 02:53:53;;;;;;;1.40;0.70;;;8.90;99.90;;;;;;5055679;28;20470;-72
2022/02/21 02:56:20;;;;;;;1.00;0.60;;;8.80;99.90;;;;;;5055612;28;20455;-72
2022/02/21 02:58:48;;;;;;;1.37;0.60;;;8.70;99.90;;;;;;5055904;28;20459;-71
2022/02/21 03:01:15;;;;;;;1.53;0.77;;;8.60;99.90;;;;;;5055389;28;20485;-71
2022/02/21 03:03:41;;;;;;;1.00;0.67;;;8.50;99.90;;;;;;5055622;28;20831;-71
2022/02/21 03:06:08;;;;;;;2.40;0.70;;;8.40;99.90;;;;;;5055519;28;20825;-71
2022/02/21 03:08:35;;;;;;;1.10;0.70;;;8.40;99.90;;;;;;5055507;28;20463;-71
2022/02/21 03:11:01;;;;;;;1.10;0.70;;;8.40;99.90;;;;;;5055310;28;20459;-71
2022/02/21 03:13:28;;;;;;;1.63;0.70;;;8.30;99.90;;;;;;5055096;28;20969;-71
2022/02/21 03:15:57;;;;;;;1.10;0.63;;;8.20;99.90;;;;;;5055429;28;20463;-70
2022/02/21 03:18:24;;;;;;;1.00;0.60;;;8.10;99.90;;;;;;5055343;28;20463;-71
2022/02/21 03:20:50;;;;;;;1.53;0.80;;;8.20;99.90;;;;;;5055115;28;20463;-70
2022/02/21 03:23:17;;;;;;;3.37;0.63;;;8.10;99.90;;;;;;5054972;28;20470;-71
2022/02/21 03:25:44;;;;;;;1.20;0.70;;;8.10;99.90;;;;;;5055295;28;20455;-71
2022/02/21 03:28:11;;;;;;;1.93;0.70;;;8.10;99.90;;;;;;5055183;28;20787;-71
2022/02/21 03:30:37;;;;;;;1.10;0.70;;;8.00;99.90;;;;;;5055035;28;20494;-71
2022/02/21 03:33:07;;;;;;;1.20;0.70;;;8.00;99.90;;;;;;5055288;28;20570;-72
2022/02/21 03:35:34;;;;;;;1.33;0.60;;;7.90;99.90;;;;;;5054995;28;20890;-71
2022/02/21 03:38:00;;;;;;;1.93;0.73;;;7.80;99.90;;;;;;5055194;28;20997;-72
2022/02/21 03:40:29;;;;;;;3.20;0.80;;;7.80;99.90;;;;;;5054998;28;20462;-72
2022/02/21 03:42:56;;;;;;;1.63;0.77;;;7.80;99.90;;;;;;5054387;28;20451;-72
2022/02/21 03:45:23;;;;;;;1.00;0.70;;;7.80;99.90;;;;;;5055072;28;20532;-73
2022/02/21 03:47:50;;;;;;;1.00;0.70;;;7.80;99.90;;;;;;5055108;28;20455;-72
2022/02/21 03:50:18;;;;;;;4.23;0.73;;;7.80;99.90;;;;;;5054617;28;20455;-72
2022/02/21 03:52:45;;;;;;;1.20;0.60;;;7.90;99.90;;;;;;5054780;28;20479;-72
2022/02/21 03:55:12;;;;;;;3.23;0.87;;;7.90;99.90;;;;;;5054609;28;20942;-72
2022/02/21 03:57:39;;;;;;;1.10;0.70;;;7.90;99.90;;;;;;5054875;28;20462;-73
2022/02/21 04:00:08;;;;;;;1.07;0.60;;;7.90;99.90;;;;;;5055151;28;20459;-72
2022/02/21 04:02:37;;;;;;;1.00;0.60;;;7.90;99.90;;;;;;5054787;28;20462;-72
2022/02/21 04:05:05;;;;;;;1.37;0.80;;;7.90;99.90;;;;;;5054729;28;20772;-73
2022/02/21 04:07:33;;;;;;;0.90;0.57;;;7.90;99.90;;;;;;5057821;28;20954;-73
2022/02/21 04:10:05;;;;;;;1.00;0.70;;;7.90;99.90;;;;;;5059026;28;20937;-73
2022/02/21 04:12:31;;;;;;;1.70;0.73;;;7.90;99.90;;;;;;5060442;28;20478;-73
2022/02/21 04:14:58;;;;;;;1.00;0.63;;;7.90;99.90;;;;;;5058605;28;20469;-73
2022/02/21 04:17:25;;;;;;;1.50;0.80;;;8.00;99.90;;;;;;5058763;28;20455;-73
2022/02/21 04:19:54;;;;;;;1.40;0.70;;;8.00;99.90;;;;;;5058568;28;20459;-73
2022/02/21 04:22:21;;;;;;;1.00;0.70;;;7.90;99.90;;;;;;5058567;28;20779;-72
2022/02/21 04:24:49;;;;;;;2.40;0.70;;;7.90;99.90;;;;;;5062219;28;20459;-72
2022/02/21 04:27:18;;;;;;;2.20;0.70;;;7.90;99.90;;;;;;5058199;28;20465;-73
2022/02/21 04:29:45;;;;;;;1.30;0.70;;;7.90;99.90;;;;;;5058413;28;20494;-72
2022/02/21 04:32:13;;;;;;;1.50;0.77;;;8.00;99.90;;;;;;5058134;28;20467;-73
2022/02/21 04:34:40;;;;;;;1.10;0.73;;;7.90;99.90;;;;;;5058471;28;20541;-73
2022/02/21 04:37:06;;;;;;;1.23;1.10;;;7.90;99.90;;;;;;5058606;28;20459;-73
2022/02/21 04:39:36;;;;;;;1.40;0.80;;;7.90;99.90;;;;;;5058594;28;20454;-73
2022/02/21 04:42:05;;;;;;;1.80;0.70;;;7.80;99.90;;;;;;5058200;28;20477;-73
2022/02/21 04:44:32;;;;;;;1.23;0.70;;;7.90;99.90;;;;;;5058409;28;20459;-73
2022/02/21 04:46:58;;;;;;;1.87;0.70;;;7.80;99.90;;;;;;5058102;28;20459;-73
2022/02/21 04:49:25;;;;;;;1.60;0.80;;;7.90;99.90;;;;;;5057623;28;20498;-73
2022/02/21 04:51:52;;;;;;;1.13;0.70;;;7.70;99.90;;;;;;5058055;28;20486;-73
2022/02/21 04:54:18;;;;;;;4.70;0.80;;;7.60;99.90;;;;;;5058358;28;20459;-73
2022/02/21 04:56:45;;;;;;;1.50;0.73;;;7.50;99.90;;;;;;5057490;28;20927;-73
2022/02/21 04:59:15;;;;;;;1.30;0.60;;;7.50;99.90;;;;;;5057993;28;20561;-73
2022/02/21 05:01:41;;;;;;;1.00;0.60;;;7.60;99.90;;;;;;5058317;28;20458;-74
2022/02/21 05:04:08;;;;;;;1.40;0.70;;;7.50;99.90;;;;;;5058150;28;20470;-73
2022/02/21 05:06:36;;;;;;;0.90;0.60;;;7.50;99.90;;;;;;5058705;28;20803;-72
2022/02/21 05:09:03;;;;;;;1.87;0.90;;;7.50;99.90;;;;;;5058539;28;20463;-72
2022/02/21 05:11:30;;;;;;;1.83;0.80;;;7.50;99.90;;;;;;5058755;28;20927;-71
2022/02/21 05:13:56;;;;;;;2.00;0.80;;;7.40;99.90;;;;;;5058153;28;20475;-72
2022/02/21 05:16:24;;;;;;;2.53;0.80;;;7.40;99.90;;;;;;5058761;28;20455;-74
2022/02/21 05:18:51;;;;;;;1.20;0.70;;;7.40;99.90;;;;;;5060907;28;20455;-73
2022/02/21 05:21:18;;;;;;;1.30;0.63;;;7.40;99.90;;;;;;5063783;28;20465;-73
2022/02/21 05:23:45;;;;;;;4.23;1.00;;;7.40;99.90;;;;;;5062675;28;20497;-73
2022/02/21 05:26:11;;;;;;;2.20;0.97;;;7.30;99.90;;;;;;5062982;28;20562;-73
2022/02/21 05:28:38;;;;;;;1.70;0.80;;;7.30;99.90;;;;;;5057605;28;20462;-73
2022/02/21 05:31:05;;;;;;;1.97;0.80;;;7.20;99.90;;;;;;5057108;28;20698;-72
2022/02/21 05:33:33;;;;;;;1.97;0.90;;;7.20;99.90;;;;;;5057224;28;20490;-73
2022/02/21 05:35:59;;;;;;;2.87;0.90;;;7.20;99.90;;;;;;5056959;28;20528;-73
2022/02/21 05:38:28;;;;;;;4.00;0.90;;;7.10;99.90;;;;;;5057396;28;20459;-74
2022/02/21 05:40:54;;;;;;;2.30;0.90;;;7.10;99.90;;;;;;5057776;28;20463;-73
2022/02/21 05:43:21;;;;;;;1.30;0.73;;;7.00;99.90;;;;;;5057520;28;20464;-74
2022/02/21 05:45:50;;;;;;;2.40;0.83;;;7.00;99.90;;;;;;5057475;28;20459;-73
2022/02/21 05:48:17;;;;;;;1.97;0.90;;;7.00;99.90;;;;;;5057544;28;20549;-73
2022/02/21 05:50:47;;;;;;;2.03;0.90;;;7.00;99.90;;;;;;5057116;28;20452;-73
2022/02/21 05:53:14;;;;;;;1.73;1.00;;;7.00;99.90;;;;;;5056683;28;20475;-71
2022/02/21 05:55:41;;;;;;;1.87;1.03;;;7.00;99.90;;;;;;5056779;28;20470;-73
2022/02/21 05:58:09;;;;;;;3.40;1.13;;;7.00;99.90;;;;;;5056804;28;20459;-73
2022/02/21 06:00:36;;;;;;;1.93;1.00;;;7.00;99.90;;;;;;5057286;28;20494;-73
2022/02/21 06:03:03;;;;;;;2.83;0.93;;;7.00;99.90;;;;;;5056963;28;20455;-73
2022/02/21 06:05:32;;;;;;;2.07;0.90;;;6.90;99.90;;;;;;5056963;28;20550;-72
2022/02/21 06:08:01;;;;;;;5.87;1.10;;;6.90;99.90;;;;;;5057232;28;20926;-74
2022/02/21 06:10:27;;;;;;;5.33;1.40;;;6.90;99.90;;;;;;5056978;28;20460;-72
2022/02/21 06:12:54;;;;;;;2.13;1.03;;;6.90;99.90;;;;;;5057049;28;20483;-72
2022/02/21 06:15:24;;;;;;;1.47;1.00;;;6.80;99.90;;;;;;5057697;28;20477;-73
2022/02/21 06:17:51;;;;;;;2.10;1.23;;;6.40;99.90;;;;;;5057421;28;20462;-73
2022/02/21 06:20:17;;;;;;;2.30;1.27;;;5.90;99.90;;;;;;5059714;28;20473;-72
2022/02/21 06:22:44;;;;;;;5.13;1.70;;;5.70;99.90;;;;;;5061485;28;20466;-73
2022/02/21 06:25:12;;;;;;;5.30;1.43;;;5.60;99.90;;;;;;5061128;28;20463;-72
2022/02/21 06:27:39;;;;;;;6.30;1.50;;;5.50;99.90;;;;;;5060377;28;20466;-73
2022/02/21 06:30:07;;;;;;;3.00;1.33;;;5.50;99.90;;;;;;5057557;28;21027;-73
2022/02/21 06:32:36;;;;;;;6.97;1.77;;;5.50;99.90;;;;;;5057389;28;20467;-72
2022/02/21 06:35:03;;;;;;;5.70;1.50;;;5.50;99.90;;;;;;5056298;28;20463;-72
2022/02/21 06:37:30;;;;;;;5.20;1.83;;;5.50;99.90;;;;;;5056094;28;20482;-73
2022/02/21 06:39:56;;;;;;;4.50;1.53;;;5.50;99.90;;;;;;5056435;28;20466;-72
2022/02/21 06:42:25;;;;;;;4.07;1.80;;;5.50;99.90;;;;;;5055954;28;20459;-73
2022/02/21 06:44:53;;;;;;;4.83;1.77;;;5.50;99.90;;;;;;5055917;28;20464;-73
2022/02/21 06:47:19;;;;;;;3.10;1.57;;;5.50;99.90;;;;;;5055775;28;20494;-72
2022/02/21 06:49:46;;;;;;;3.73;1.90;;;5.40;99.90;;;;;;5055584;28;20469;-75
2022/02/21 06:52:13;;;;;;;4.70;1.73;;;5.40;99.90;;;;;;5055683;28;20513;-72
2022/02/21 06:54:39;;;;;;;4.53;1.30;;;5.40;99.90;;;;;;5055723;28;20463;-73
2022/02/21 06:57:06;;;;;;;1.97;1.40;;;5.40;99.90;;;;;;5055745;28;20935;-73
2022/02/21 06:59:34;;;;;;;1.97;1.37;;;5.40;99.90;;;;;;5055574;28;20474;-73
2022/02/21 07:02:01;;;;;;;5.40;1.80;;;5.40;99.90;;;;;;5056414;28;20455;-73
2022/02/21 07:04:30;;;;;;;5.93;1.80;;;5.50;99.90;;;;;;5055543;28;20554;-74
2022/02/21 07:06:56;;;;;;;4.10;1.93;;;5.50;99.90;;;;;;5055703;28;20485;-74
2022/02/21 07:09:23;;;;;;;5.63;1.33;;;5.50;99.90;;;;;;5055281;28;20455;-72
2022/02/21 07:11:50;;;;;;;4.83;2.00;;;5.50;99.90;;;;;;5055135;28;20927;-73
2022/02/21 07:14:16;;;;;;;4.13;1.90;;;5.50;99.90;;;;;;5055400;28;20495;-73
2022/02/21 07:16:44;;;;;;;1.63;1.20;;;5.50;99.90;;;;;;5055609;28;20470;-73
2022/02/21 07:19:11;;;;;;;5.90;1.40;;;5.50;99.90;;;;;;5055288;28;20485;-72
2022/02/21 07:21:38;;;;;;;4.63;1.40;;;5.50;99.90;;;;;;5055510;28;20546;-73
2022/02/21 07:24:05;;;;;;;4.33;1.83;;;5.60;99.90;;;;;;5054748;28;20455;-71
2022/02/21 07:26:33;;;;;;;7.30;2.17;;;5.60;99.90;;;;;;5054947;28;20926;-73
2022/02/21 07:28:59;;;;;;;3.17;1.77;;;5.30;99.90;;;;;;5055109;28;20451;-73
2022/02/21 07:31:26;;;;;;;2.83;1.60;;;4.70;99.90;;;;;;5054751;28;20487;-73
2022/02/21 07:33:54;;;;;;;5.10;2.10;;;4.40;99.90;;;;;;5055009;28;20506;-73
2022/02/21 07:36:21;;;;;;;6.87;2.10;;;4.20;99.90;;;;;;5054985;28;20469;-74
2022/02/21 07:38:47;;;;;;;9.40;2.50;;;4.00;99.90;;;;;;5055339;28;20792;-74
2022/02/21 07:41:14;;;;;;;11.77;2.10;;;4.00;99.90;;;;;;5054554;28;20470;-74
2022/02/21 07:43:41;;;;;;;7.77;2.90;;;4.00;99.90;;;;;;5055217;28;20459;-73
2022/02/21 07:46:07;;;;;;;5.10;2.23;;;4.00;99.90;;;;;;5054791;28;20746;-73
2022/02/21 07:48:34;;;;;;;9.93;2.60;;;4.10;99.90;;;;;;5054841;28;20459;-74
2022/02/21 07:51:02;;;;;;;7.33;3.00;;;4.30;99.90;;;;;;5055076;28;20906;-73
2022/02/21 07:53:29;;;;;;;7.10;2.60;;;4.40;99.90;;;;;;5054779;28;20549;-72
2022/02/21 07:55:56;;;;;;;7.37;2.57;;;4.50;99.90;;;;;;5055047;28;20485;-73
2022/02/21 07:58:23;;;;;;;4.17;1.80;;;4.60;99.90;;;;;;5054509;28;20811;-74
2022/02/21 08:00:49;;;;;;;6.47;2.57;;;4.70;99.90;;;;;;5054645;28;20455;-73
2022/02/21 08:03:16;;;;;;;5.67;2.10;;;4.80;99.90;;;;;;5054879;28;20463;-73
2022/02/21 08:05:43;;;;;;;8.00;2.50;;;4.90;99.90;;;;;;5055706;28;20491;-75
2022/02/21 08:08:11;;;;;;;12.30;2.97;;;5.00;99.90;;;;;;5055399;28;20455;-74
2022/02/21 08:10:38;;;;;;;9.63;2.40;;;5.10;99.90;;;;;;5055381;28;20456;-73
2022/02/21 08:13:05;;;;;;;5.27;2.60;;;5.10;99.90;;;;;;5054907;28;20510;-72
2022/02/21 08:15:32;;;;;;;5.30;2.03;;;5.10;99.90;;;;;;5055098;28;20466;-74
2022/02/21 08:17:59;;;;;;;14.63;2.53;;;5.20;99.90;;;;;;5055110;28;20792;-74
2022/02/21 08:20:26;;;;;;;5.20;1.70;;;5.20;99.90;;;;;;5054715;28;20459;-73
2022/02/21 08:22:58;;;;;;;6.93;1.53;;;5.30;99.90;;;;;;5055302;28;20466;-75
2022/02/21 08:25:27;;;;;;;6.23;2.60;;;5.40;99.90;;;;;;5054768;28;20454;-72
2022/02/21 08:41:22;;;;;;;6.37;1.80;;;5.50;99.90;;;;;;5029716;28;20506;-72
2022/02/21 08:43:49;;;;;;;11.50;2.03;;;5.40;99.90;;;;;;5035802;28;20436;-71
2022/02/21 08:46:16;;;;;;;9.23;1.90;;;5.40;99.90;;;;;;5035891;28;20474;-72
2022/02/21 08:48:45;;;;;;;5.57;1.83;;;5.50;99.90;;;;;;5035605;28;20456;-72
2022/02/21 08:51:12;;;;;;;6.53;1.53;;;5.50;99.90;;;;;;5034071;28;20464;-72
2022/02/21 08:53:38;;;;;;;7.13;2.17;;;5.50;99.90;;;;;;5035298;28;20488;-72
2022/02/21 08:56:05;;;;;;;10.60;1.83;;;5.50;99.90;;;;;;5036518;28;20452;-72
2022/02/21 08:58:34;;;;;;;7.60;2.30;;;5.50;99.90;;;;;;5035661;28;20471;-73
2022/02/21 09:01:01;;;;;;;4.83;1.80;;;5.50;99.90;;;;;;5039619;28;20467;-71
2022/02/21 09:03:28;;;;;;;6.03;1.70;;;5.50;99.90;;;;;;5040801;28;20913;-72
2022/02/21 09:05:55;;;;;;;7.27;2.37;;;5.60;99.90;;;;;;5037895;28;20460;-72
2022/02/21 09:08:22;;;;;;;5.80;1.87;;;5.70;99.90;;;;;;5040077;28;20464;-72
2022/02/21 09:10:49;;;;;;;5.83;2.60;;;5.70;99.90;;;;;;5037147;28;20463;-73
2022/02/21 09:13:16;;;;;;;9.57;2.20;;;5.80;99.90;;;;;;5035492;28;20475;-73
2022/02/21 09:15:45;;;;;;;4.63;2.10;;;5.80;99.90;;;;;;5035861;28;20467;-73
2022/02/21 09:18:12;;;;;;;8.17;1.97;;;5.80;99.90;;;;;;5043557;28;20534;-72
2022/02/21 09:20:41;;;;;;;9.90;2.13;;;5.80;99.90;;;;;;5057028;28;20795;-73
2022/02/21 09:23:11;;;;;;;7.33;1.97;;;5.80;99.90;;;;;;5056927;28;20471;-72
2022/02/21 09:25:37;;;;;;;5.50;1.73;;;5.80;99.90;;;;;;5056598;28;20466;-72
2022/02/21 09:28:05;;;;;;;8.43;2.17;;;5.80;99.90;;;;;;5056608;28;20529;-72
2022/02/21 09:30:34;;;;;;;4.70;1.93;;;5.80;99.90;;;;;;5056940;28;20791;-72
2022/02/21 09:33:02;;;;;;;5.13;1.83;;;5.90;99.90;;;;;;5056499;28;20920;-72
2022/02/21 09:35:29;;;;;;;6.80;1.80;;;5.90;99.90;;;;;;5057894;28;20451;-73
2022/02/21 09:37:57;;;;;;;5.90;1.93;;;5.90;99.90;;;;;;5056324;28;20935;-73
2022/02/21 09:40:24;;;;;;;6.10;1.83;;;5.90;99.90;;;;;;5056127;28;20582;-72
2022/02/21 09:42:51;;;;;;;3.83;1.93;;;5.90;99.90;;;;;;5056684;28;20761;-73
2022/02/21 09:45:19;;;;;;;4.97;1.37;;;6.00;99.90;;;;;;5056540;28;20550;-73
2022/02/21 09:47:46;;;;;;;3.70;1.57;;;5.90;99.90;;;;;;5056533;28;20451;-73
2022/02/21 09:50:17;;;;;;;8.37;2.17;;;5.90;99.90;;;;;;5056800;28;20462;-73
2022/02/21 09:52:44;;;;;;;5.60;1.73;;;6.00;99.90;;;;;;5056292;28;20465;-72
2022/02/21 09:55:11;;;;;;;4.33;2.00;;;5.90;99.90;;;;;;5056121;28;20490;-72
2022/02/21 09:57:38;;;;;;;6.23;2.30;;;6.00;99.90;;;;;;5056587;28;21010;-72
2022/02/21 10:00:08;;;;;;;5.60;2.30;;;6.00;99.90;;;;;;5056147;28;20459;-72
2022/02/21 10:02:38;;;;;;;4.40;2.30;;;6.10;99.90;;;;;;5056592;28;20464;-72
2022/02/21 10:05:12;;;;;;;7.87;3.70;;;6.10;99.90;;;;;;5055406;28;20558;-73
2022/02/21 10:07:44;;;;;;;5.93;1.67;;;6.10;99.90;;;;;;5056808;28;20776;-72
2022/02/21 10:10:13;;;;;;;9.77;1.90;;;6.10;99.90;;;;;;5056274;28;20439;-72
2022/02/21 10:12:47;;;;;;;7.07;2.90;;;6.10;99.90;;;;;;5056246;28;20466;-72
2022/02/21 10:15:17;;;;;;;9.60;2.10;;;6.20;99.90;;;;;;5056614;28;20493;-73
2022/02/21 10:17:44;;;;;;;6.23;1.80;;;6.30;99.90;;;;;;5056179;28;20455;-73
2022/02/21 10:20:12;;;;;;;4.13;1.50;;;6.40;99.90;;;;;;5056604;28;20451;-73
2022/02/21 10:22:40;;;;;;;10.47;2.17;;;6.30;99.90;;;;;;5057761;28;20817;-73
2022/02/21 10:25:19;;;;;;;3.83;1.60;;;6.30;99.90;;;;;;5056855;28;20470;-72
2022/02/21 10:27:46;;;;;;;6.77;2.53;;;6.40;99.90;;;;;;5057396;28;20443;-73
2022/02/21 10:30:17;;;;;;;6.90;2.27;;;6.40;99.90;;;;;;5056121;28;20542;-72
2022/02/21 10:32:50;;;;;;;7.10;2.60;;;6.40;99.90;;;;;;5056015;28;20964;-72
2022/02/21 10:35:20;;;;;;;5.70;2.00;;;6.40;99.90;;;;;;5055865;28;20574;-72
2022/02/21 10:37:50;;;;;;;7.27;1.90;;;6.40;99.90;;;;;;5055241;28;20887;-72
2022/02/21 10:40:18;;;;;;;7.97;2.50;;;6.40;99.90;;;;;;5055354;28;20589;-72
2022/02/21 10:43:01;;;;;;;3.70;1.73;;;6.40;99.90;;;;;;5055925;28;20485;-73
2022/02/21 10:45:29;;;;;;;12.03;1.63;;;6.40;99.90;;;;;;5055115;28;20450;-72
2022/02/21 10:48:01;;;;;;;6.10;2.00;;;6.40;99.90;;;;;;5055649;28;20452;-72
2022/02/21 10:50:28;;;;;;;9.73;1.67;;;6.40;99.90;;;;;;5055415;28;20910;-72
2022/02/21 10:52:56;;;;;;;4.50;1.60;;;6.40;99.90;;;;;;5055825;28;20459;-72
2022/02/21 10:55:32;;;;;;;4.63;1.67;;;6.40;99.90;;;;;;5055213;28;20479;-72
2022/02/21 10:57:59;;;;;;;5.10;1.80;;;6.40;99.90;;;;;;5055991;28;20443;-72
2022/02/21 11:00:26;;;;;;;10.87;2.20;;;6.50;99.90;;;;;;5055331;28;20466;-72
2022/02/21 11:02:56;;;;;;;5.60;1.67;;;6.50;99.90;;;;;;5055310;28;20443;-72
2022/02/21 11:05:23;;;;;;;4.80;1.90;;;6.50;99.90;;;;;;5055179;28;20451;-73
2022/02/21 11:07:52;;;;;;;7.10;1.90;;;6.60;99.90;;;;;;5055468;28;20929;-71
2022/02/21 11:10:23;;;;;;;7.30;1.93;;;6.70;99.90;;;;;;5055730;28;20451;-72
2022/02/21 11:12:52;;;;;;;10.03;2.17;;;6.70;99.90;;;;;;5055277;28;20497;-72
2022/02/21 11:15:20;;;;;;;3.70;1.67;;;6.60;99.90;;;;;;5055248;28;20482;-73
2022/02/21 11:17:47;;;;;;;7.67;1.70;;;6.60;99.90;;;;;;5055151;28;20459;-72
2022/02/21 11:20:14;;;;;;;4.70;1.63;;;6.60;99.90;;;;;;5055358;28;20459;-71
2022/02/21 11:22:41;;;;;;;6.70;2.30;;;6.60;99.90;;;;;;5054785;28;20462;-72
2022/02/21 11:25:22;;;;;;;3.70;1.80;;;6.60;99.90;;;;;;5054700;28;20451;-74
2022/02/21 11:27:56;;;;;;;8.00;2.10;;;6.60;99.90;;;;;;5054760;28;20534;-72
2022/02/21 11:30:27;;;;;;;5.83;2.20;;;6.60;99.90;;;;;;5054964;28;20521;-72
2022/02/21 11:33:08;;;;;;;5.97;1.57;;;6.60;99.90;;;;;;5054844;28;20538;-72
2022/02/21 11:35:36;;;;;;;5.37;2.00;;;6.60;99.90;;;;;;5054474;28;20486;-73
2022/02/21 11:38:20;;;;;;;6.80;1.77;;;6.60;99.90;;;;;;5054568;28;20455;-73
2022/02/21 11:40:59;;;;;;;9.03;2.13;;;6.60;99.90;;;;;;5054126;28;21017;-72
2022/02/21 11:43:29;;;;;;;4.90;1.63;;;6.60;99.90;;;;;;5054260;28;20463;-73
2022/02/21 11:45:59;;;;;;;5.03;2.23;;;6.60;99.90;;;;;;5056298;28;20432;-73
2022/02/21 11:48:25;;;;;;;5.50;1.80;;;6.60;99.90;;;;;;5054449;28;20596;-71
2022/02/21 11:50:59;;;;;;;6.13;1.80;;;6.70;99.90;;;;;;5054744;28;20459;-72
2022/02/21 11:53:29;;;;;;;6.00;1.93;;;6.70;99.90;;;;;;5054507;28;20447;-72
2022/02/21 11:55:58;;;;;;;6.50;2.03;;;6.70;99.90;;;;;;5053567;28;20565;-72
2022/02/21 11:58:39;;;;;;;4.63;2.27;;;6.70;99.90;;;;;;5053867;28;20463;-72
2022/02/21 12:01:21;;;;;;;7.33;1.90;;;6.80;99.90;;;;;;5054968;28;20669;-72
2022/02/21 12:04:17;;;;;;;8.90;2.70;;;6.80;99.90;;;;;;5054129;28;20494;-72
2022/02/21 12:06:55;;;;;;;4.53;1.80;;;6.90;99.90;;;;;;5053846;28;20454;-72
2022/02/21 12:09:22;;;;;;;3.10;1.70;;;6.90;99.90;;;;;;5054309;28;20789;-72
2022/02/21 12:11:50;;;;;;;3.70;1.60;;;6.90;99.90;;;;;;5054678;28;20463;-74
2022/02/21 12:14:25;;;;;;;5.67;1.87;;;6.90;99.90;;;;;;5055334;28;20483;-70
2022/02/21 12:17:05;;;;;;;6.20;2.00;;;6.90;99.90;;;;;;5058629;28;20439;-72
2022/02/21 12:19:34;;;;;;;6.50;1.50;;;6.90;99.90;;;;;;5060263;28;20462;-72
2022/02/21 12:22:12;;;;;;;4.83;1.80;;;6.90;99.90;;;;;;5057876;28;20470;-72
2022/02/21 12:25:19;;;;;;;5.30;1.70;;;7.00;99.90;;;;;;5059972;28;20443;-73
2022/02/21 12:28:13;;;;;;;2.50;1.47;;;7.00;99.90;;;;;;5030322;28;20455;-72
2022/02/21 12:30:42;;;;;;;6.23;1.70;;;7.00;99.90;;;;;;5062067;28;20464;-73
2022/02/21 12:33:11;;;;;;;6.20;2.43;;;6.90;99.90;;;;;;5058470;28;20553;-74
2022/02/21 12:35:49;;;;;;;9.90;2.40;;;7.00;99.90;;;;;;5059085;28;20482;-72
2022/02/21 12:38:17;;;;;;;5.60;2.00;;;7.00;99.90;;;;;;5059624;28;20451;-72
2022/02/21 12:41:02;;;;;;;5.70;2.10;;;7.00;99.90;;;;;;5057933;28;20483;-71
2022/02/21 12:43:50;;;;;;;4.90;1.80;;;7.00;99.90;;;;;;5057899;28;20455;-71
2022/02/21 12:46:19;;;;;;;4.80;1.70;;;7.00;99.90;;;;;;5058319;28;20446;-73
2022/02/21 12:48:46;;;;;;;8.77;2.50;;;7.10;99.90;;;;;;5058147;28;20927;-73
2022/02/21 12:51:21;;;;;;;6.13;2.13;;;7.00;99.90;;;;;;5057764;28;20807;-71
2022/02/21 12:53:52;;;;;;;3.80;1.43;;;6.90;99.90;;;;;;5058521;28;20823;-73
2022/02/21 12:56:19;;;;;;;5.80;1.90;;;6.90;99.90;;;;;;5058436;28;20803;-72
2022/02/21 12:58:51;;;;;;;5.70;1.90;;;6.90;99.90;;;;;;5057657;28;20447;-73
2022/02/21 13:01:20;;;;;;;7.23;2.07;;;6.90;99.90;;;;;;5057801;28;20479;-72
2022/02/21 13:04:00;;;;;;;9.53;2.20;;;6.90;99.90;;;;;;5057389;28;20572;-73
2022/02/21 13:06:28;;;;;;;9.80;1.77;;;6.90;99.90;;;;;;5058008;28;20435;-72
2022/02/21 13:08:55;;;;;;;6.57;2.17;;;6.90;99.90;;;;;;5057561;28;20469;-71
2022/02/21 13:11:23;;;;;;;3.97;1.93;;;6.90;99.90;;;;;;5057390;28;20466;-72
2022/02/21 13:13:53;;;;;;;4.83;2.00;;;6.90;99.90;;;;;;5057512;28;20497;-71
2022/02/21 13:16:21;;;;;;;5.20;2.27;;;6.90;99.90;;;;;;5056669;28;21041;-71